• Join FlightAware (Why Join?)
  • Login
  • US Flag 
12:41AM EST


 

Airport Tracker/Info


-or-


 

Live Flight TrackerFlight Track Log ✈ TRS310 ✈ 03-Jun-2013 ✈ KGRR - KMCO

Flight Track Log - Related Links

Times and Time Zones

All times are in EDT time to prevent confusion due to time zone crossing. See the TRS310 flight status page for this flight to view local times or setup timezone preferences in your user account.

Time Position Orientation Groundspeed Altitude Reporting Facility
EDT Latitude Longitude Course Direction KTS MPH feet Rate Location/Type
12:46PM 42.8286 -85.5792 170° South 216 249 3,400  Level Chicago Center
12:47PM 42.7592 -85.5633 170° South 248 285 5,000 2,220 Climbing Chicago Center
12:48PM 42.6642 -85.5436 171° South 281 323 8,100 2,520 Climbing Chicago Center
12:49PM 42.5825 -85.5264 171° South 291 335 10,300 1,620 Climbing Chicago Center
12:50PM 42.4908 -85.5083 172° South 327 376 11,500 1,320 Climbing Chicago Center
12:51PM 42.3886 -85.4850 170° South 366 421 13,100 1,680 Climbing Chicago Center
12:52PM 42.2833 -85.4617 171° South 382 440 15,000 1,800 Climbing Chicago Center
12:53PM 42.1733 -85.4381 171° South 398 458 16,900 1,860 Climbing Chicago Center
12:54PM 42.0361 -85.4094 171° South 415 478 18,900 1,800 Climbing Chicago Center
12:55PM 41.9283 -85.3814 169° South 428 493 20,700 1,920 Climbing Chicago Center
12:56PM 41.8122 -85.3133 156° South 447 514 22,900 2,220 Climbing Chicago Center
12:57PM 41.6978 -85.2428 155° Southeast 444 511 25,400 2,280 Climbing Chicago Center
12:58PM 41.5836 -85.1775 157° South 438 504 27,700 1,740 Climbing Chicago Center
12:59PM 41.4494 -85.1003 157° South 436 502 29,000 600 Climbing Chicago Center
01:00PM 41.3289 -85.0281 156° South 466 536 29,000 600 Level Chicago Center
01:01PM 41.1992 -84.9703 161° South 489 563 30,300 1,200 Climbing Chicago Center
01:02PM 41.0700 -84.9447 172° South 471 542 31,600 1,200 Climbing Chicago Center
01:04PM 40.9419 -84.9189 171° South 467 537 32,900 660 Climbing Chicago Center
01:05PM 40.8128 -84.8950 172° South 467 537 33,000  Climbing Chicago Center
01:06PM 40.6844 -84.8733 173° South 465 535 33,000  Level Chicago Center
01:06PM 40.5961 -84.8578 172° South 465 535 33,000  Level Indianapolis Center
01:07PM 40.4689 -84.8328 171° South 461 531 33,000  Level Indianapolis Center
01:08PM 40.3403 -84.8103 172° South 461 531 33,000  Level Indianapolis Center
01:09PM 40.1867 -84.7828 172° South 472 543 33,000  Level Indianapolis Center
01:10PM 40.0578 -84.7600 172° South 468 539 33,000  Level Indianapolis Center
01:11PM 39.9303 -84.7364 172° South 462 532 33,000  Level Indianapolis Center
01:12PM 39.8017 -84.7136 172° South 463 533 33,000  Level Indianapolis Center
01:13PM 39.6739 -84.6914 172° South 462 532 33,000  Level Indianapolis Center
01:14PM 39.5458 -84.6683 172° South 462 532 33,000  Level Indianapolis Center
01:15PM 39.4186 -84.6456 172° South 460 529 33,000  Level Indianapolis Center
01:16PM 39.2686 -84.6197 172° South 463 533 33,000  Level Indianapolis Center
01:18PM 39.1394 -84.5961 172° South 465 535 33,000  Level Indianapolis Center
01:19PM 39.0092 -84.5744 173° South 468 539 33,000  Level Indianapolis Center
01:20PM 38.8733 -84.5506 172° South 464 534 33,000  Level Indianapolis Center
01:21PM 38.7514 -84.5294 172° South 464 534 33,000  Level Indianapolis Center
01:22PM 38.6089 -84.5053 172° South 470 541 33,000  Level Indianapolis Center
01:23PM 38.4800 -84.4833 172° South 467 537 33,000  Level Indianapolis Center
01:24PM 38.3503 -84.4600 172° South 470 541 33,000  Level Indianapolis Center
01:25PM 38.2225 -84.4381 172° South 465 535 33,000  Level Indianapolis Center
01:26PM 38.0928 -84.4178 173° South 466 536 33,000  Level Indianapolis Center
01:27PM 37.9447 -84.3903 172° South 462 532 33,000  Level Indianapolis Center
01:28PM 37.8153 -84.3689 173° South 467 537 33,000  Level Indianapolis Center
01:29PM 37.6864 -84.3481 173° South 467 537 33,000  Level Indianapolis Center
01:30PM 37.5578 -84.3253 172° South 469 540 33,000  Level Indianapolis Center
01:31PM 37.4306 -84.3047 173° South 462 532 33,000  Level Indianapolis Center
01:32PM 37.3028 -84.2828 172° South 463 533 33,000  Level Indianapolis Center
01:33PM 37.1550 -84.2581 172° South 460 529 33,000  Level Indianapolis Center
01:34PM 37.0292 -84.2375 173° South 456 525 33,000  Level Indianapolis Center
01:35PM 36.9039 -84.2175 173° South 454 522 33,000  Level Indianapolis Center
01:36PM 36.7786 -84.1956 172° South 454 522 33,000  Level Indianapolis Center
01:37PM 36.6550 -84.1756 173° South 450 518 33,000  Level Indianapolis Center
01:38PM 36.5114 -84.1531 173° South 447 514 33,000  Level Indianapolis Center
01:39PM 36.3894 -84.1325 172° South 448 516 33,000  Level Indianapolis Center
01:40PM 36.2647 -84.1114 172° South 450 518 33,000  Level Indianapolis Center
01:41PM 36.1403 -84.0919 173° South 449 517 33,000  Level Indianapolis Center
01:42PM 36.0603 -84.0797 173° South 451 519 33,000  Level Atlanta Center
01:43PM 35.9353 -84.0592 172° South 451 519 33,000  Level Atlanta Center
01:44PM 35.8081 -84.0414 174° South 451 519 33,000  Level Atlanta Center
01:45PM 35.6850 -84.0208 172° South 451 519 33,000  Level Atlanta Center
01:46PM 35.5597 -84.0006 172° South 451 519 33,000  Level Atlanta Center
01:47PM 35.4367 -83.9800 172° South 451 519 33,000  Level Atlanta Center
01:48PM 35.3114 -83.9625 173° South 451 519 33,000  Level Atlanta Center
01:49PM 35.1861 -83.9422 172° South 451 519 33,000  Level Atlanta Center
01:50PM 35.0631 -83.9219 172° South 451 519 33,000  Level Atlanta Center
01:51PM 34.9400 -83.9019 172° South 451 519 33,000  Level Atlanta Center
01:52PM 34.8064 -83.8794 172° South 446 513 33,000  Level Atlanta Center
01:53PM 34.6833 -83.8569 171° South 443 510 33,000  Level Atlanta Center
01:54PM 34.5683 -83.7967 157° South 443 510 33,000  Level Atlanta Center
01:55PM 34.4556 -83.7364 156° South 448 516 33,000  Level Atlanta Center
01:56PM 34.3406 -83.6739 156° South 454 522 33,000  Level Atlanta Center
01:57PM 34.2403 -83.6217 157° South 449 517 33,000  Level Atlanta Center
01:58PM 34.1253 -83.5619 157° South 442 509 33,000  Level Atlanta Center
01:59PM 34.0103 -83.5225 164° South 431 496 33,000  Level Atlanta Center
02:00PM 33.8953 -83.4808 163° South 431 496 33,000  Level Atlanta Center
02:01PM 33.7761 -83.4539 169° South 431 496 33,000  Level Atlanta Center
02:02PM 33.6508 -83.4447 177° South 431 496 33,000  Level Atlanta Center
02:03PM 33.5319 -83.4383 177° South 421 484 33,000  Level Atlanta Center
02:04PM 33.4108 -83.4317 177° South 427 491 33,000  Level Atlanta Center
02:05PM 33.2939 -83.4225 176° South 427 491 33,000  Level Atlanta Center
02:06PM 33.1747 -83.4158 177° South 427 491 33,000  Level Atlanta Center
02:07PM 33.0789 -83.4117 178° South 427 491 33,000  Level Atlanta Center
02:08PM 32.9389 -83.4078 179° South 432 497 33,000  Level Atlanta Center
02:09PM 32.8200 -83.3986 176° South 427 491 33,000  Level Atlanta Center
02:10PM 32.6967 -83.3897 177° South 427 491 33,000  Level Atlanta Center
02:11PM 32.5778 -83.3831 177° South 432 497 33,000  Level Atlanta Center
02:12PM 32.4586 -83.3767 177° South 437 503 33,000  Level Atlanta Center
02:13PM 32.3356 -83.3678 177° South 442 509 33,000  Level Atlanta Center
02:14PM 32.2144 -83.3636 178° South 437 503 33,000  Level Atlanta Center
02:15PM 32.0953 -83.3525 175° South 437 503 33,000  Level Atlanta Center
02:16PM 31.9528 -83.3456 178° South 436 502 33,000  Level Jacksonville Center
02:17PM 31.8297 -83.3353 176° South 436 502 33,000  Level Jacksonville Center
02:18PM 31.7064 -83.3322 179° South 442 509 33,000  Level Jacksonville Center
02:19PM 31.5981 -83.3000 166° South 442 509 33,000  Level Jacksonville Center
02:20PM 31.4811 -83.2386 156° South 443 510 33,000  Level Jacksonville Center
02:21PM 31.3667 -83.1747 155° Southeast 448 516 33,000  Level Jacksonville Center
02:22PM 31.2519 -83.1114 155° Southeast 453 521 33,000  Level Jacksonville Center
02:23PM 31.1331 -83.0503 156° South 464 534 33,000 -600 Level Jacksonville Center
02:24PM 31.0139 -82.9919 157° South 459 528 31,900 -2,100 Descending Jacksonville Center
02:25PM 30.8992 -82.9336 156° South 459 528 28,800 -2,460 Descending Jacksonville Center
02:26PM 30.7864 -82.8708 154° Southeast 459 528 27,000 -900 Descending Jacksonville Center
02:27PM 30.6736 -82.8081 154° Southeast 454 522 27,000  Level Jacksonville Center
02:28PM 30.5775 -82.7142 140° Southeast 444 511 27,000  Level Jacksonville Center
02:29PM 30.4856 -82.6178 138° Southeast 444 511 27,000  Level Jacksonville Center
02:30PM 30.4308 -82.4878 116° Southeast 444 511 27,000  Level Jacksonville Center
02:31PM 30.4197 -82.3242 94° East 431 496 27,000  Level Jacksonville Center
02:32PM 30.4128 -82.1747 93° East 450 518 27,000 -180 Level Jacksonville Center
02:33PM 30.3992 -82.0281 96° East 461 531 26,700 -600 Descending Jacksonville Center
02:34PM 30.3089 -81.9350 138° Southeast 415 478 25,900 -360 Descending Jacksonville Center
02:35PM 30.1900 -81.9408 182° South 387 445 26,000  Climbing Jacksonville Center
02:36PM 30.0711 -81.9686 191° South 426 490 26,000  Level Jacksonville Center
02:37PM 29.9628 -81.9958 192° South 431 496 26,000  Level Jacksonville Center
02:38PM 29.8481 -82.0233 192° South 431 496 26,000  Level Jacksonville Center
02:39PM 29.7269 -82.0317 183° South 431 496 26,000 -420 Level Jacksonville Center
02:40PM 29.5975 -82.0303 179° South 426 490 25,200 -1,200 Descending Jacksonville Center
02:41PM 29.4808 -82.0314 180° South 420 483 23,700 -1,680 Descending Jacksonville Center
02:42PM 29.3783 -82.0322 180° South 420 483 21,900 -1,860 Descending Jacksonville Center
02:43PM 29.2736 -81.9783 156° South 408 470 20,000 -2,580 Descending Jacksonville Center
02:44PM 29.1647 -81.9153 153° Southeast 403 464 16,800 -3,120 Descending Jacksonville Center
02:45PM 29.0703 -81.8664 156° South 391 450 13,800 -2,460 Descending Jacksonville Center
02:46PM 28.9822 -81.8125 152° Southeast 380 437 11,900 -1,380 Descending Jacksonville Center
02:47PM 28.9275 -81.7467 134° Southeast 345 397 11,100 -1,320 Descending Jacksonville Center
02:48PM 28.8767 -81.6714 128° Southeast 322 371 9,300 -1,800 Descending Jacksonville Center
02:49PM 28.8300 -81.5986 126° Southeast 298 343 7,500 -1,560 Descending Jacksonville Center
02:50PM 28.7833 -81.5281 127° Southeast 282 325 6,200 -960 Descending Jacksonville Center
02:51PM 28.7389 -81.4694 131° Southeast 266 306 5,600 -1,020 Descending Jacksonville Center
02:52PM 28.7006 -81.4086 126° Southeast 249 287 4,200 -1,200 Descending Jacksonville Center
02:53PM 28.6500 -81.3333 127° Southeast 238 274 3,100 -840 Descending Orlando TRACON
02:54PM 28.6000 -81.3333 180° South 213 245 2,500 -300 Descending Orlando TRACON
02:55PM 28.5333 -81.3333 180° South 156 180 2,500 -600 Level Orlando TRACON
02:56PM 28.5000 -81.3333 180° South 141 162 1,300 -1,020 Descending Orlando TRACON
02:57PM 28.4667 -81.3333 180° South 139 160 500 -840 Descending Orlando TRACON
02:59PM 28.4294 -81.3090 180° South  Level Estimated
03:06PM 28.4294 -81.3090 24° Northeast  Level Estimated
03:07PM 28.4294 -81.3090 24° Northeast  Level Estimated
03:08PM 28.4294 -81.3090 24° Northeast  Level Estimated
03:09PM 28.4294 -81.3090 24° Northeast  Level Estimated